Terminal Aerodrome Forecast
Issued by NWS

Home | Current Version | Previous Version | Text Only | Print | Product List | Glossary On
Versions: 1 2 3 4 5 6 7 8 9 10 11 12 13 14 15 16 17 18 19 20 21
000
FTAK31 PAFA 222339
TAFAFA
TAF
PAFA 222339Z 2300/2406 19003KT P6SM SCT014 BKN070 BKN100
     FM230200 24008KT P6SM -SHRA SCT030 BKN070
     FM230700 23004KT P6SM -SHRA BKN030 OVC050
     FM231500 22003KT P6SM BCFG BKN030 BKN060
     FM232000 15004KT P6SM VCSH SCT030 BKN060=

USA.gov is the U.S. government's official web portal to all federal, state and local government web resources and services.